Aérodrome :
LOGIN :

S'inscrire | Disclaimer

   EN    FR    IT 

 










Légende :    VFR   VFR Marginal   IFR   IFR Intensif   IFR Très Intensif
Visi : 
Plafond : 
>= 8 km
>= 3000ft
5 à 8 km
1000 à 3000 ft
1500m à 5 km
500 à 1000 ft
800 à 1500m
200 à 500 ft
< 800m
< 200 ft
Symboles :   Orages  Brouillard  Fortes neiges  Fortes précipitations  Vent > 20 kt
SIGMETs :   Divers  Orages  Givrage  Turbulence  Onde Orograph.  Cendres Volcan.







- Altitude de l'aérodrome : 436 ft
- Code IATA : ANG
- Voir les cartes d'approche


LFBU - Angoulême Brie Champniers

DERNIER METAR :
  • 011730Z AUTO 24012KT 9999 -RA OVC019 12/09 Q1014 TEMPO 20015G25KT 4000 RADZ BKN014

METARs EXPIRÉS :
  • 011700Z AUTO 24011KT 9999 -RA BKN019 OVC032 12/09 Q1013 TEMPO 20015G25KT 4000 RADZ BKN004 BKN009
  • 011630Z AUTO 24011KT 9999 -RA BKN017 OVC023 12/09 Q1013 TEMPO 20015G25KT 4000 RADZ BKN004 BKN009
  • 011600Z AUTO 24012G23KT 210V270 9999 OVC016 12/09 Q1013 TEMPO 4000 RADZ BKN004 BKN009
  • 011530Z AUTO 24011KT 9999 OVC015 12/09 Q1013 TEMPO 20015G25KT 4000 RADZ BKN004 BKN009
  • 011500Z AUTO 25011KT 9999 -RA OVC013 11/09 Q1013 TEMPO 20015G25KT 4000 RADZ BKN004 BKN009

TAF TAF LFBU
Valide du 01 à 18h jusqu'au 02 à 18h UTC


011700Z 0118/0218 24012KT 9999 BKN030
TEMPO 0118/0120 20015G25KT 4000 RADZ BKN014
TEMPO 0122/0206 30010KT 4000 RA BKN005 BKN012
BECMG 0208/0210 12005KT
Pas de NOTAMs connus pour ce terrain.
1 SIGMET publié pour la FIR Bordeaux (LFBB) :
 
Turbulence forte
LFBB SIGMET 2 VALID 011600/012000 LFPW
LFBB BORDEAUX FIR/UIR SEV TURB OBS WI N4530 W00145 - N4630 W00130 - N4630 W00015 - N4715 W00015 - N4630 E00100 SFC/FL040 STNR NC=



MET'MAP, la Météo Aéronautique d'un coup d'oeil ! - Copyright ORBIFLY Décembre 2007 - Disclaimer

ORBIFLY MET'MAP TEAM :

Programmation & Développement : Alexandra Zaïnal
Conception & Développement : Baudouin d'Aumeries
Co-Programmation & Développement : Marc-Olivier Méhu
Soutien technique & logistique : Manuel Goepfert

Contact : metmap@orbifly.com




SOURCES & CREDITS :

   NOAA